Angelina County Airport
KLFK : now visible

Airfield :











YOU CAN JOIN US ON...

 
LOGIN :

Register | Disclaimer

   EN    FR    IT 

 









Legend :    VFR   Marginal VFR   IFR   Intensive IFR   Very Intensive IFR
Visi :
Ceiling :
>= 8 km
>= 3000ft
5 to 8 km
1000 to 3000 ft
1500m to 5 km
500 to 1000 ft
800 to 1500m
200 to 500 ft
< 800m
< 200 ft
Symbols :   Thunderstorms  Fog  Heavy snow  Heavy precipitations  Wind > 20 kt







- Airport Elevation : 296 ft


KLFK - Angelina County

CURRENT METAR :
  • 181853Z AUTO 28006KT 10SM -RA BKN010 BKN014 OVC019 18/16 A2971 RMK AO2 RAB53 CIG 008V012 SLP057 P0001 T01780161

EXPIRED METARs :
  • 181753Z AUTO 27004KT 10SM SCT009 BKN013 OVC042 17/16 A2970 RMK AO2 SLP053 P0007 60082 T01720161 10172 20156 56008
  • 181739Z AUTO 00000KT 10SM SCT008 BKN015 OVC042 17/16 A2970 RMK AO2 P0007 T01720161
  • 181653Z AUTO 00000KT 10SM BKN005 17/16 A2970 RMK AO2 RAE34 PRESRR SLP053 P0013 T01720161
  • 181629Z AUTO 01008KT 10SM -RA SCT005 SCT044 BKN070 16/16 A2966 RMK AO2 P0008 T01610161

TAF KLFK
Valid from the 18 at 18:00 until the 19 at 18:00 UTC


181738Z 1818/1918 30008KT P6SM SCT010 OVC020
TEMPO 1818/1820 VRB04KT OVC005
FM182200 31014G22KT P6SM BKN040
FM190200 31005KT P6SM SCT100 SCT250
FM190800 29003KT P6SM OVC050
KZHU FIR / North America



MET'MAP, your aeronautical weather chart ! - Copyright ORBIFLY December 2007 - Disclaimer

ORBIFLY MET'MAP TEAM :

Programming & Development : Alexandra Zaïnal
Concept & Development : Baudouin d'Aumeries
Co-Development & Prog : Marc-Olivier Méhu
Technical & hardware support : Manuel Goepfert

Contact : metmap@orbifly.com




SOURCES & CREDITS :

   NOAA       Earth
Advisory